sensor_id;sensor_type;location;lat;lon;timestamp;P1;durP1;ratioP1;P2;durP2;ratioP2
14883;SDS011;7534;50.762;7.000;2023-08-21T00:01:45;13.70;;;12.48;;
14883;SDS011;7534;50.762;7.000;2023-08-21T00:04:13;14.30;;;12.80;;
14883;SDS011;7534;50.762;7.000;2023-08-21T00:07:02;13.50;;;12.13;;
14883;SDS011;7534;50.762;7.000;2023-08-21T00:09:42;13.35;;;12.05;;
14883;SDS011;7534;50.762;7.000;2023-08-21T00:12:11;13.63;;;12.32;;
14883;SDS011;7534;50.762;7.000;2023-08-21T00:15:02;14.13;;;12.70;;
14883;SDS011;7534;50.762;7.000;2023-08-21T00:17:37;14.55;;;13.15;;
14883;SDS011;7534;50.762;7.000;2023-08-21T00:20:07;15.70;;;13.38;;
14883;SDS011;7534;50.762;7.000;2023-08-21T00:22:41;14.05;;;12.68;;
14883;SDS011;7534;50.762;7.000;2023-08-21T00:25:11;14.23;;;12.88;;
14883;SDS011;7534;50.762;7.000;2023-08-21T00:27:40;14.90;;;13.50;;
14883;SDS011;7534;50.762;7.000;2023-08-21T00:30:11;15.00;;;13.52;;
14883;SDS011;7534;50.762;7.000;2023-08-21T00:32:39;14.70;;;13.20;;
14883;SDS011;7534;50.762;7.000;2023-08-21T00:35:06;14.70;;;13.32;;
14883;SDS011;7534;50.762;7.000;2023-08-21T00:37:34;14.35;;;13.15;;
14883;SDS011;7534;50.762;7.000;2023-08-21T00:40:00;14.80;;;13.48;;
14883;SDS011;7534;50.762;7.000;2023-08-21T00:42:27;14.50;;;13.10;;
14883;SDS011;7534;50.762;7.000;2023-08-21T00:44:56;14.85;;;13.15;;
14883;SDS011;7534;50.762;7.000;2023-08-21T00:47:27;14.88;;;13.40;;
14883;SDS011;7534;50.762;7.000;2023-08-21T00:49:56;14.00;;;12.80;;
14883;SDS011;7534;50.762;7.000;2023-08-21T00:52:28;14.55;;;13.13;;
14883;SDS011;7534;50.762;7.000;2023-08-21T00:54:58;14.52;;;13.23;;
14883;SDS011;7534;50.762;7.000;2023-08-21T00:57:26;14.88;;;13.55;;
14883;SDS011;7534;50.762;7.000;2023-08-21T00:59:55;15.73;;;14.23;;
14883;SDS011;7534;50.762;7.000;2023-08-21T01:02:21;14.93;;;13.63;;
14883;SDS011;7534;50.762;7.000;2023-08-21T01:04:48;15.73;;;14.18;;
14883;SDS011;7534;50.762;7.000;2023-08-21T01:07:16;13.90;;;12.70;;
14883;SDS011;7534;50.762;7.000;2023-08-21T01:09:55;14.02;;;12.73;;
14883;SDS011;7534;50.762;7.000;2023-08-21T01:12:33;14.18;;;12.82;;
14883;SDS011;7534;50.762;7.000;2023-08-21T01:15:16;14.63;;;13.23;;
14883;SDS011;7534;50.762;7.000;2023-08-21T01:17:43;15.55;;;14.15;;
14883;SDS011;7534;50.762;7.000;2023-08-21T01:20:19;15.00;;;13.52;;
14883;SDS011;7534;50.762;7.000;2023-08-21T01:22:52;15.23;;;13.85;;
14883;SDS011;7534;50.762;7.000;2023-08-21T01:25:18;14.38;;;13.07;;
14883;SDS011;7534;50.762;7.000;2023-08-21T01:27:45;17.13;;;14.40;;
14883;SDS011;7534;50.762;7.000;2023-08-21T01:30:16;13.90;;;12.73;;
14883;SDS011;7534;50.762;7.000;2023-08-21T01:32:47;14.95;;;13.32;;
14883;SDS011;7534;50.762;7.000;2023-08-21T01:35:31;15.07;;;13.68;;
14883;SDS011;7534;50.762;7.000;2023-08-21T01:38:00;15.38;;;13.98;;
14883;SDS011;7534;50.762;7.000;2023-08-21T01:40:37;14.98;;;13.43;;
14883;SDS011;7534;50.762;7.000;2023-08-21T01:43:08;15.25;;;13.65;;
14883;SDS011;7534;50.762;7.000;2023-08-21T01:45:39;14.90;;;13.60;;
14883;SDS011;7534;50.762;7.000;2023-08-21T01:48:07;15.60;;;14.20;;
14883;SDS011;7534;50.762;7.000;2023-08-21T01:50:38;15.70;;;14.05;;
14883;SDS011;7534;50.762;7.000;2023-08-21T01:53:11;15.63;;;13.73;;
14883;SDS011;7534;50.762;7.000;2023-08-21T01:55:47;14.55;;;13.25;;
14883;SDS011;7534;50.762;7.000;2023-08-21T01:58:18;14.90;;;13.50;;
14883;SDS011;7534;50.762;7.000;2023-08-21T02:00:54;14.65;;;13.35;;
14883;SDS011;7534;50.762;7.000;2023-08-21T02:03:27;15.23;;;13.80;;
14883;SDS011;7534;50.762;7.000;2023-08-21T02:05:55;14.55;;;13.25;;
14883;SDS011;7534;50.762;7.000;2023-08-21T02:08:25;15.13;;;13.75;;
14883;SDS011;7534;50.762;7.000;2023-08-21T02:11:00;15.02;;;13.63;;
14883;SDS011;7534;50.762;7.000;2023-08-21T02:13:25;15.63;;;14.23;;
14883;SDS011;7534;50.762;7.000;2023-08-21T02:15:51;15.15;;;13.75;;
14883;SDS011;7534;50.762;7.000;2023-08-21T02:18:17;15.82;;;13.75;;
14883;SDS011;7534;50.762;7.000;2023-08-21T02:20:43;14.80;;;13.40;;
14883;SDS011;7534;50.762;7.000;2023-08-21T02:23:09;14.70;;;13.40;;
14883;SDS011;7534;50.762;7.000;2023-08-21T02:25:35;14.60;;;13.15;;
14883;SDS011;7534;50.762;7.000;2023-08-21T02:28:00;15.75;;;14.35;;
14883;SDS011;7534;50.762;7.000;2023-08-21T02:30:29;14.63;;;13.23;;
14883;SDS011;7534;50.762;7.000;2023-08-21T02:32:55;16.05;;;14.40;;
14883;SDS011;7534;50.762;7.000;2023-08-21T02:35:21;15.77;;;14.40;;
14883;SDS011;7534;50.762;7.000;2023-08-21T02:37:46;15.18;;;13.65;;
14883;SDS011;7534;50.762;7.000;2023-08-21T02:40:12;15.80;;;14.40;;
14883;SDS011;7534;50.762;7.000;2023-08-21T02:42:38;15.25;;;13.75;;
14883;SDS011;7534;50.762;7.000;2023-08-21T02:45:04;15.00;;;13.30;;
14883;SDS011;7534;50.762;7.000;2023-08-21T02:47:37;14.70;;;13.40;;
14883;SDS011;7534;50.762;7.000;2023-08-21T02:50:05;15.00;;;13.48;;
14883;SDS011;7534;50.762;7.000;2023-08-21T02:52:32;14.63;;;13.23;;
14883;SDS011;7534;50.762;7.000;2023-08-21T02:54:59;14.35;;;13.02;;
14883;SDS011;7534;50.762;7.000;2023-08-21T02:57:25;14.55;;;13.05;;
14883;SDS011;7534;50.762;7.000;2023-08-21T02:59:52;13.38;;;12.18;;
14883;SDS011;7534;50.762;7.000;2023-08-21T03:02:18;14.73;;;12.82;;
14883;SDS011;7534;50.762;7.000;2023-08-21T03:04:45;13.48;;;12.38;;
14883;SDS011;7534;50.762;7.000;2023-08-21T03:07:10;13.82;;;12.43;;
14883;SDS011;7534;50.762;7.000;2023-08-21T03:09:37;13.43;;;12.13;;
14883;SDS011;7534;50.762;7.000;2023-08-21T03:12:04;12.73;;;11.35;;
14883;SDS011;7534;50.762;7.000;2023-08-21T03:14:30;13.70;;;12.40;;
14883;SDS011;7534;50.762;7.000;2023-08-21T03:16:56;14.43;;;13.02;;
14883;SDS011;7534;50.762;7.000;2023-08-21T03:19:47;13.85;;;12.60;;
14883;SDS011;7534;50.762;7.000;2023-08-21T03:22:16;13.45;;;12.23;;
14883;SDS011;7534;50.762;7.000;2023-08-21T03:24:53;13.75;;;12.10;;
14883;SDS011;7534;50.762;7.000;2023-08-21T03:27:35;13.27;;;12.07;;
14883;SDS011;7534;50.762;7.000;2023-08-21T03:30:21;14.35;;;13.07;;
14883;SDS011;7534;50.762;7.000;2023-08-21T03:32:55;13.48;;;12.18;;
14883;SDS011;7534;50.762;7.000;2023-08-21T03:36:14;13.63;;;12.32;;
14883;SDS011;7534;50.762;7.000;2023-08-21T03:41:59;13.90;;;12.60;;
14883;SDS011;7534;50.762;7.000;2023-08-21T03:44:25;13.85;;;12.45;;
14883;SDS011;7534;50.762;7.000;2023-08-21T03:46:50;13.30;;;11.95;;
14883;SDS011;7534;50.762;7.000;2023-08-21T03:49:16;14.30;;;12.73;;
14883;SDS011;7534;50.762;7.000;2023-08-21T03:51:42;14.38;;;12.88;;
14883;SDS011;7534;50.762;7.000;2023-08-21T03:54:08;13.38;;;12.18;;
14883;SDS011;7534;50.762;7.000;2023-08-21T03:56:34;13.43;;;12.13;;
14883;SDS011;7534;50.762;7.000;2023-08-21T03:59:00;13.73;;;12.10;;
14883;SDS011;7534;50.762;7.000;2023-08-21T04:01:26;12.73;;;11.52;;
14883;SDS011;7534;50.762;7.000;2023-08-21T04:03:51;13.15;;;11.98;;
14883;SDS011;7534;50.762;7.000;2023-08-21T04:06:17;12.32;;;11.13;;
14883;SDS011;7534;50.762;7.000;2023-08-21T04:08:43;12.95;;;11.45;;
14883;SDS011;7534;50.762;7.000;2023-08-21T04:11:09;13.30;;;12.00;;
14883;SDS011;7534;50.762;7.000;2023-08-21T04:13:34;12.85;;;11.50;;
14883;SDS011;7534;50.762;7.000;2023-08-21T04:16:00;12.75;;;11.40;;
14883;SDS011;7534;50.762;7.000;2023-08-21T04:18:26;11.73;;;10.52;;
14883;SDS011;7534;50.762;7.000;2023-08-21T04:20:51;13.20;;;11.40;;
14883;SDS011;7534;50.762;7.000;2023-08-21T04:23:17;13.00;;;11.65;;
14883;SDS011;7534;50.762;7.000;2023-08-21T04:25:43;12.57;;;11.38;;
14883;SDS011;7534;50.762;7.000;2023-08-21T04:28:09;12.85;;;11.55;;
14883;SDS011;7534;50.762;7.000;2023-08-21T04:30:34;13.43;;;11.45;;
14883;SDS011;7534;50.762;7.000;2023-08-21T04:33:00;13.55;;;12.35;;
14883;SDS011;7534;50.762;7.000;2023-08-21T04:35:26;13.20;;;11.90;;
14883;SDS011;7534;50.762;7.000;2023-08-21T04:37:52;13.80;;;12.48;;
14883;SDS011;7534;50.762;7.000;2023-08-21T04:40:18;13.70;;;12.38;;
14883;SDS011;7534;50.762;7.000;2023-08-21T04:42:46;14.00;;;12.70;;
14883;SDS011;7534;50.762;7.000;2023-08-21T04:45:12;13.00;;;11.80;;
14883;SDS011;7534;50.762;7.000;2023-08-21T04:47:38;13.75;;;12.43;;
14883;SDS011;7534;50.762;7.000;2023-08-21T04:50:04;13.45;;;12.15;;
14883;SDS011;7534;50.762;7.000;2023-08-21T04:52:30;13.98;;;12.57;;
14883;SDS011;7534;50.762;7.000;2023-08-21T04:54:56;13.93;;;12.63;;
14883;SDS011;7534;50.762;7.000;2023-08-21T04:57:21;13.52;;;12.13;;
14883;SDS011;7534;50.762;7.000;2023-08-21T04:59:47;13.27;;;12.05;;
14883;SDS011;7534;50.762;7.000;2023-08-21T05:02:13;15.20;;;12.15;;
14883;SDS011;7534;50.762;7.000;2023-08-21T05:04:39;13.70;;;12.40;;
14883;SDS011;7534;50.762;7.000;2023-08-21T05:07:05;12.88;;;11.75;;
14883;SDS011;7534;50.762;7.000;2023-08-21T05:09:31;12.68;;;11.38;;
14883;SDS011;7534;50.762;7.000;2023-08-21T05:11:57;12.00;;;10.80;;
14883;SDS011;7534;50.762;7.000;2023-08-21T05:14:23;12.13;;;11.05;;
14883;SDS011;7534;50.762;7.000;2023-08-21T05:16:49;11.23;;;10.23;;
14883;SDS011;7534;50.762;7.000;2023-08-21T05:19:16;13.38;;;11.02;;
14883;SDS011;7534;50.762;7.000;2023-08-21T05:21:42;11.63;;;10.10;;
14883;SDS011;7534;50.762;7.000;2023-08-21T05:24:10;11.75;;;9.98;;
14883;SDS011;7534;50.762;7.000;2023-08-21T05:26:36;10.80;;;9.70;;
14883;SDS011;7534;50.762;7.000;2023-08-21T05:29:03;10.50;;;9.52;;
14883;SDS011;7534;50.762;7.000;2023-08-21T05:31:31;10.93;;;9.57;;
14883;SDS011;7534;50.762;7.000;2023-08-21T05:33:59;9.70;;;8.80;;
14883;SDS011;7534;50.762;7.000;2023-08-21T05:36:26;10.02;;;9.13;;
14883;SDS011;7534;50.762;7.000;2023-08-21T05:38:52;11.20;;;9.68;;
14883;SDS011;7534;50.762;7.000;2023-08-21T05:41:21;10.85;;;9.90;;
14883;SDS011;7534;50.762;7.000;2023-08-21T05:43:49;11.80;;;10.18;;
14883;SDS011;7534;50.762;7.000;2023-08-21T05:46:15;10.38;;;9.38;;
14883;SDS011;7534;50.762;7.000;2023-08-21T05:48:43;9.98;;;9.07;;
14883;SDS011;7534;50.762;7.000;2023-08-21T05:51:13;10.07;;;9.15;;
14883;SDS011;7534;50.762;7.000;2023-08-21T05:53:41;10.63;;;9.02;;
14883;SDS011;7534;50.762;7.000;2023-08-21T05:56:07;9.73;;;8.82;;
14883;SDS011;7534;50.762;7.000;2023-08-21T05:58:33;10.23;;;9.05;;
14883;SDS011;7534;50.762;7.000;2023-08-21T06:01:01;9.50;;;8.57;;
14883;SDS011;7534;50.762;7.000;2023-08-21T06:03:28;10.13;;;9.10;;
14883;SDS011;7534;50.762;7.000;2023-08-21T06:06:00;9.55;;;8.57;;
14883;SDS011;7534;50.762;7.000;2023-08-21T06:08:27;9.98;;;8.90;;
14883;SDS011;7534;50.762;7.000;2023-08-21T06:10:56;11.25;;;8.90;;
14883;SDS011;7534;50.762;7.000;2023-08-21T06:13:24;9.02;;;8.23;;
14883;SDS011;7534;50.762;7.000;2023-08-21T06:15:56;11.70;;;8.85;;
14883;SDS011;7534;50.762;7.000;2023-08-21T06:18:24;9.18;;;8.27;;
14883;SDS011;7534;50.762;7.000;2023-08-21T06:20:49;10.82;;;9.02;;
14883;SDS011;7534;50.762;7.000;2023-08-21T06:23:19;9.32;;;8.43;;
14883;SDS011;7534;50.762;7.000;2023-08-21T06:25:49;10.10;;;9.20;;
14883;SDS011;7534;50.762;7.000;2023-08-21T06:28:15;9.65;;;8.65;;
14883;SDS011;7534;50.762;7.000;2023-08-21T06:30:41;10.38;;;9.43;;
14883;SDS011;7534;50.762;7.000;2023-08-21T06:33:07;9.45;;;8.55;;
14883;SDS011;7534;50.762;7.000;2023-08-21T06:35:36;9.38;;;8.57;;
14883;SDS011;7534;50.762;7.000;2023-08-21T06:38:02;10.27;;;9.27;;
14883;SDS011;7534;50.762;7.000;2023-08-21T06:40:28;10.00;;;8.50;;
14883;SDS011;7534;50.762;7.000;2023-08-21T06:42:56;10.80;;;9.05;;
14883;SDS011;7534;50.762;7.000;2023-08-21T06:45:23;10.52;;;9.52;;
14883;SDS011;7534;50.762;7.000;2023-08-21T06:47:49;9.10;;;8.30;;
14883;SDS011;7534;50.762;7.000;2023-08-21T06:50:15;8.20;;;7.50;;
14883;SDS011;7534;50.762;7.000;2023-08-21T06:52:42;8.80;;;7.93;;
14883;SDS011;7534;50.762;7.000;2023-08-21T06:55:08;8.90;;;6.82;;
14883;SDS011;7534;50.762;7.000;2023-08-21T06:57:36;8.88;;;6.85;;
14883;SDS011;7534;50.762;7.000;2023-08-21T07:00:03;8.38;;;7.28;;
14883;SDS011;7534;50.762;7.000;2023-08-21T07:02:32;8.65;;;6.93;;
14883;SDS011;7534;50.762;7.000;2023-08-21T07:04:58;9.32;;;7.03;;
14883;SDS011;7534;50.762;7.000;2023-08-21T07:07:24;7.47;;;6.78;;
14883;SDS011;7534;50.762;7.000;2023-08-21T07:09:50;7.78;;;7.07;;
14883;SDS011;7534;50.762;7.000;2023-08-21T07:12:16;8.35;;;6.97;;
14883;SDS011;7534;50.762;7.000;2023-08-21T07:14:42;8.73;;;7.35;;
14883;SDS011;7534;50.762;7.000;2023-08-21T07:17:07;9.27;;;6.72;;
14883;SDS011;7534;50.762;7.000;2023-08-21T07:19:33;8.37;;;7.50;;
14883;SDS011;7534;50.762;7.000;2023-08-21T07:21:59;10.02;;;7.28;;
14883;SDS011;7534;50.762;7.000;2023-08-21T07:24:25;8.88;;;7.70;;
14883;SDS011;7534;50.762;7.000;2023-08-21T07:26:50;9.55;;;8.05;;
14883;SDS011;7534;50.762;7.000;2023-08-21T07:29:17;8.52;;;7.60;;
14883;SDS011;7534;50.762;7.000;2023-08-21T07:31:43;8.38;;;7.57;;
14883;SDS011;7534;50.762;7.000;2023-08-21T07:34:09;8.00;;;7.18;;
14883;SDS011;7534;50.762;7.000;2023-08-21T07:36:35;8.25;;;7.45;;
14883;SDS011;7534;50.762;7.000;2023-08-21T07:39:01;8.13;;;7.32;;
14883;SDS011;7534;50.762;7.000;2023-08-21T07:41:27;7.80;;;7.00;;
14883;SDS011;7534;50.762;7.000;2023-08-21T07:43:53;7.70;;;7.03;;
14883;SDS011;7534;50.762;7.000;2023-08-21T07:46:18;9.65;;;7.82;;
14883;SDS011;7534;50.762;7.000;2023-08-21T07:48:44;8.13;;;7.38;;
14883;SDS011;7534;50.762;7.000;2023-08-21T07:51:11;9.07;;;7.82;;
14883;SDS011;7534;50.762;7.000;2023-08-21T07:53:37;9.20;;;8.43;;
14883;SDS011;7534;50.762;7.000;2023-08-21T07:56:03;18.33;;;10.15;;
14883;SDS011;7534;50.762;7.000;2023-08-21T07:58:30;9.52;;;8.63;;
14883;SDS011;7534;50.762;7.000;2023-08-21T08:00:56;8.77;;;7.40;;
14883;SDS011;7534;50.762;7.000;2023-08-21T08:03:22;8.98;;;8.05;;
14883;SDS011;7534;50.762;7.000;2023-08-21T08:05:48;11.57;;;8.02;;
14883;SDS011;7534;50.762;7.000;2023-08-21T08:08:13;9.48;;;7.75;;
14883;SDS011;7534;50.762;7.000;2023-08-21T08:10:43;7.82;;;7.13;;
14883;SDS011;7534;50.762;7.000;2023-08-21T08:13:09;8.23;;;7.45;;
14883;SDS011;7534;50.762;7.000;2023-08-21T08:15:35;8.55;;;7.40;;
14883;SDS011;7534;50.762;7.000;2023-08-21T08:18:04;10.38;;;7.38;;
14883;SDS011;7534;50.762;7.000;2023-08-21T08:20:32;7.70;;;6.85;;
14883;SDS011;7534;50.762;7.000;2023-08-21T08:22:58;9.07;;;7.00;;
14883;SDS011;7534;50.762;7.000;2023-08-21T08:25:24;8.30;;;7.47;;
14883;SDS011;7534;50.762;7.000;2023-08-21T08:27:51;7.28;;;6.30;;
14883;SDS011;7534;50.762;7.000;2023-08-21T08:30:17;8.23;;;6.60;;
14883;SDS011;7534;50.762;7.000;2023-08-21T08:32:42;7.65;;;6.82;;
14883;SDS011;7534;50.762;7.000;2023-08-21T08:35:12;8.02;;;7.32;;
14883;SDS011;7534;50.762;7.000;2023-08-21T08:37:40;9.30;;;7.18;;
14883;SDS011;7534;50.762;7.000;2023-08-21T08:40:07;8.85;;;8.05;;
14883;SDS011;7534;50.762;7.000;2023-08-21T08:42:35;9.82;;;8.85;;
14883;SDS011;7534;50.762;7.000;2023-08-21T08:45:02;9.85;;;8.95;;
14883;SDS011;7534;50.762;7.000;2023-08-21T08:47:31;9.27;;;8.25;;
14883;SDS011;7534;50.762;7.000;2023-08-21T08:50:04;9.27;;;8.45;;
14883;SDS011;7534;50.762;7.000;2023-08-21T08:52:36;9.35;;;8.05;;
14883;SDS011;7534;50.762;7.000;2023-08-21T08:55:05;9.52;;;8.73;;
14883;SDS011;7534;50.762;7.000;2023-08-21T08:57:32;9.10;;;8.27;;
14883;SDS011;7534;50.762;7.000;2023-08-21T08:59:59;9.20;;;8.40;;
14883;SDS011;7534;50.762;7.000;2023-08-21T09:02:25;9.63;;;8.68;;
14883;SDS011;7534;50.762;7.000;2023-08-21T09:04:51;9.02;;;8.23;;
14883;SDS011;7534;50.762;7.000;2023-08-21T09:07:17;8.23;;;7.57;;
14883;SDS011;7534;50.762;7.000;2023-08-21T09:09:45;8.63;;;7.80;;
14883;SDS011;7534;50.762;7.000;2023-08-21T09:12:14;9.10;;;8.30;;
14883;SDS011;7534;50.762;7.000;2023-08-21T09:14:42;10.43;;;8.57;;
14883;SDS011;7534;50.762;7.000;2023-08-21T09:17:09;9.40;;;8.57;;
14883;SDS011;7534;50.762;7.000;2023-08-21T09:19:35;9.38;;;8.40;;
14883;SDS011;7534;50.762;7.000;2023-08-21T09:22:07;8.80;;;7.97;;
14883;SDS011;7534;50.762;7.000;2023-08-21T09:24:37;8.52;;;7.65;;
14883;SDS011;7534;50.762;7.000;2023-08-21T09:27:03;8.88;;;8.10;;
14883;SDS011;7534;50.762;7.000;2023-08-21T09:29:39;8.95;;;8.10;;
14883;SDS011;7534;50.762;7.000;2023-08-21T09:32:06;8.48;;;7.65;;
14883;SDS011;7534;50.762;7.000;2023-08-21T09:34:36;8.68;;;7.88;;
14883;SDS011;7534;50.762;7.000;2023-08-21T09:37:06;9.38;;;8.48;;
14883;SDS011;7534;50.762;7.000;2023-08-21T09:39:35;9.38;;;8.48;;
14883;SDS011;7534;50.762;7.000;2023-08-21T09:42:08;9.45;;;8.55;;
14883;SDS011;7534;50.762;7.000;2023-08-21T09:44:35;8.77;;;7.97;;
14883;SDS011;7534;50.762;7.000;2023-08-21T09:47:10;8.75;;;7.85;;
14883;SDS011;7534;50.762;7.000;2023-08-21T09:49:37;8.02;;;7.22;;
14883;SDS011;7534;50.762;7.000;2023-08-21T09:52:07;7.68;;;6.97;;
14883;SDS011;7534;50.762;7.000;2023-08-21T09:54:38;9.65;;;8.23;;
14883;SDS011;7534;50.762;7.000;2023-08-21T09:57:06;8.38;;;6.97;;
14883;SDS011;7534;50.762;7.000;2023-08-21T09:59:33;8.98;;;7.10;;
14883;SDS011;7534;50.762;7.000;2023-08-21T10:01:59;10.50;;;7.22;;
14883;SDS011;7534;50.762;7.000;2023-08-21T10:04:27;7.60;;;6.80;;
14883;SDS011;7534;50.762;7.000;2023-08-21T10:06:55;6.97;;;6.38;;
14883;SDS011;7534;50.762;7.000;2023-08-21T10:09:23;7.70;;;6.40;;
14883;SDS011;7534;50.762;7.000;2023-08-21T10:11:52;9.18;;;6.68;;
14883;SDS011;7534;50.762;7.000;2023-08-21T10:14:20;7.82;;;6.57;;
14883;SDS011;7534;50.762;7.000;2023-08-21T10:16:50;7.25;;;6.60;;
14883;SDS011;7534;50.762;7.000;2023-08-21T10:19:20;8.68;;;7.88;;
14883;SDS011;7534;50.762;7.000;2023-08-21T10:21:47;7.72;;;6.78;;
14883;SDS011;7534;50.762;7.000;2023-08-21T10:24:26;6.82;;;6.10;;
14883;SDS011;7534;50.762;7.000;2023-08-21T10:26:54;6.72;;;6.13;;
14883;SDS011;7534;50.762;7.000;2023-08-21T10:29:25;10.70;;;6.93;;
14883;SDS011;7534;50.762;7.000;2023-08-21T10:32:00;7.78;;;6.35;;
14883;SDS011;7534;50.762;7.000;2023-08-21T10:34:32;6.40;;;5.75;;
14883;SDS011;7534;50.762;7.000;2023-08-21T10:37:06;8.18;;;7.00;;
14883;SDS011;7534;50.762;7.000;2023-08-21T10:39:57;9.05;;;7.10;;
14883;SDS011;7534;50.762;7.000;2023-08-21T10:42:38;7.22;;;6.15;;
14883;SDS011;7534;50.762;7.000;2023-08-21T10:45:11;9.43;;;6.50;;
14883;SDS011;7534;50.762;7.000;2023-08-21T10:47:44;8.05;;;6.40;;
14883;SDS011;7534;50.762;7.000;2023-08-21T10:50:18;7.63;;;6.70;;
14883;SDS011;7534;50.762;7.000;2023-08-21T10:52:54;6.88;;;5.95;;
14883;SDS011;7534;50.762;7.000;2023-08-21T10:55:29;8.25;;;7.45;;
14883;SDS011;7534;50.762;7.000;2023-08-21T10:57:56;8.00;;;7.13;;
14883;SDS011;7534;50.762;7.000;2023-08-21T11:14:11;7.88;;;6.90;;
14883;SDS011;7534;50.762;7.000;2023-08-21T11:16:36;8.10;;;6.80;;
14883;SDS011;7534;50.762;7.000;2023-08-21T11:19:05;9.82;;;7.30;;
14883;SDS011;7534;50.762;7.000;2023-08-21T11:21:43;13.68;;;9.32;;
14883;SDS011;7534;50.762;7.000;2023-08-21T11:27:39;8.05;;;7.00;;
14883;SDS011;7534;50.762;7.000;2023-08-21T11:36:35;8.85;;;6.68;;
14883;SDS011;7534;50.762;7.000;2023-08-21T11:39:02;8.75;;;7.05;;
14883;SDS011;7534;50.762;7.000;2023-08-21T11:44:52;9.43;;;6.97;;
14883;SDS011;7534;50.762;7.000;2023-08-21T11:47:19;11.88;;;9.30;;
14883;SDS011;7534;50.762;7.000;2023-08-21T11:50:01;8.38;;;7.65;;
14883;SDS011;7534;50.762;7.000;2023-08-21T11:52:33;9.38;;;7.00;;
14883;SDS011;7534;50.762;7.000;2023-08-21T11:55:00;9.23;;;7.85;;
14883;SDS011;7534;50.762;7.000;2023-08-21T11:57:26;9.13;;;7.50;;
14883;SDS011;7534;50.762;7.000;2023-08-21T11:59:56;9.55;;;7.03;;
14883;SDS011;7534;50.762;7.000;2023-08-21T12:02:23;7.97;;;6.80;;
14883;SDS011;7534;50.762;7.000;2023-08-21T12:04:52;9.73;;;7.00;;
14883;SDS011;7534;50.762;7.000;2023-08-21T12:07:29;7.70;;;6.55;;
14883;SDS011;7534;50.762;7.000;2023-08-21T12:09:55;8.25;;;6.43;;
14883;SDS011;7534;50.762;7.000;2023-08-21T12:12:21;7.25;;;5.80;;
14883;SDS011;7534;50.762;7.000;2023-08-21T12:14:48;7.63;;;6.40;;
14883;SDS011;7534;50.762;7.000;2023-08-21T12:17:16;8.02;;;5.70;;
14883;SDS011;7534;50.762;7.000;2023-08-21T12:19:42;8.10;;;6.85;;
14883;SDS011;7534;50.762;7.000;2023-08-21T12:22:08;7.72;;;6.93;;
14883;SDS011;7534;50.762;7.000;2023-08-21T12:24:34;7.93;;;6.07;;
14883;SDS011;7534;50.762;7.000;2023-08-21T12:27:02;7.18;;;6.47;;
14883;SDS011;7534;50.762;7.000;2023-08-21T12:29:29;8.52;;;6.57;;
14883;SDS011;7534;50.762;7.000;2023-08-21T12:31:57;7.28;;;6.03;;
14883;SDS011;7534;50.762;7.000;2023-08-21T12:34:23;9.15;;;6.30;;
14883;SDS011;7534;50.762;7.000;2023-08-21T12:36:50;8.50;;;6.03;;
14883;SDS011;7534;50.762;7.000;2023-08-21T12:39:16;9.77;;;6.78;;
14883;SDS011;7534;50.762;7.000;2023-08-21T12:41:43;8.73;;;6.18;;
14883;SDS011;7534;50.762;7.000;2023-08-21T12:44:09;6.97;;;6.28;;
14883;SDS011;7534;50.762;7.000;2023-08-21T12:46:35;9.00;;;7.22;;
14883;SDS011;7534;50.762;7.000;2023-08-21T12:49:02;10.25;;;6.80;;
14883;SDS011;7534;50.762;7.000;2023-08-21T12:51:28;7.97;;;5.78;;
14883;SDS011;7534;50.762;7.000;2023-08-21T12:53:54;6.18;;;5.50;;
14883;SDS011;7534;50.762;7.000;2023-08-21T12:56:20;6.80;;;5.80;;
14883;SDS011;7534;50.762;7.000;2023-08-21T12:58:47;8.35;;;5.75;;
14883;SDS011;7534;50.762;7.000;2023-08-21T13:01:13;6.80;;;5.38;;
14883;SDS011;7534;50.762;7.000;2023-08-21T13:03:43;7.57;;;6.15;;
14883;SDS011;7534;50.762;7.000;2023-08-21T13:06:15;8.52;;;6.20;;
14883;SDS011;7534;50.762;7.000;2023-08-21T13:08:41;6.82;;;5.72;;
14883;SDS011;7534;50.762;7.000;2023-08-21T13:11:06;9.20;;;5.90;;
14883;SDS011;7534;50.762;7.000;2023-08-21T13:13:33;8.20;;;5.47;;
14883;SDS011;7534;50.762;7.000;2023-08-21T13:15:59;7.53;;;4.90;;
14883;SDS011;7534;50.762;7.000;2023-08-21T13:18:25;5.30;;;4.80;;
14883;SDS011;7534;50.762;7.000;2023-08-21T13:20:51;6.72;;;4.93;;
14883;SDS011;7534;50.762;7.000;2023-08-21T13:23:18;6.90;;;4.50;;
14883;SDS011;7534;50.762;7.000;2023-08-21T13:25:45;6.97;;;4.80;;
14883;SDS011;7534;50.762;7.000;2023-08-21T13:28:15;6.32;;;5.75;;
14883;SDS011;7534;50.762;7.000;2023-08-21T13:30:40;7.55;;;5.72;;
14883;SDS011;7534;50.762;7.000;2023-08-21T13:33:06;9.43;;;6.30;;
14883;SDS011;7534;50.762;7.000;2023-08-21T13:35:32;9.20;;;6.50;;
14883;SDS011;7534;50.762;7.000;2023-08-21T13:37:58;10.50;;;5.88;;
14883;SDS011;7534;50.762;7.000;2023-08-21T13:40:24;8.40;;;5.88;;
14883;SDS011;7534;50.762;7.000;2023-08-21T13:42:50;8.80;;;5.50;;
14883;SDS011;7534;50.762;7.000;2023-08-21T13:45:17;8.25;;;5.00;;
14883;SDS011;7534;50.762;7.000;2023-08-21T13:47:47;8.20;;;4.50;;
14883;SDS011;7534;50.762;7.000;2023-08-21T13:50:14;7.55;;;4.10;;
14883;SDS011;7534;50.762;7.000;2023-08-21T13:52:42;7.68;;;3.75;;
14883;SDS011;7534;50.762;7.000;2023-08-21T13:55:12;7.28;;;4.90;;
14883;SDS011;7534;50.762;7.000;2023-08-21T13:57:39;7.03;;;4.57;;
14883;SDS011;7534;50.762;7.000;2023-08-21T14:00:07;6.47;;;4.32;;
14883;SDS011;7534;50.762;7.000;2023-08-21T14:02:39;7.35;;;4.43;;
14883;SDS011;7534;50.762;7.000;2023-08-21T14:05:06;4.75;;;3.95;;
14883;SDS011;7534;50.762;7.000;2023-08-21T14:07:34;6.25;;;3.97;;
14883;SDS011;7534;50.762;7.000;2023-08-21T14:10:01;5.57;;;4.00;;
14883;SDS011;7534;50.762;7.000;2023-08-21T14:12:29;7.13;;;3.88;;
14883;SDS011;7534;50.762;7.000;2023-08-21T14:14:56;8.38;;;4.20;;
14883;SDS011;7534;50.762;7.000;2023-08-21T14:17:22;7.20;;;4.10;;
14883;SDS011;7534;50.762;7.000;2023-08-21T14:19:48;5.72;;;4.05;;
14883;SDS011;7534;50.762;7.000;2023-08-21T14:22:14;4.47;;;4.07;;
14883;SDS011;7534;50.762;7.000;2023-08-21T14:24:39;8.55;;;4.15;;
14883;SDS011;7534;50.762;7.000;2023-08-21T14:27:05;3.90;;;3.50;;
14883;SDS011;7534;50.762;7.000;2023-08-21T14:29:31;7.10;;;4.40;;
14883;SDS011;7534;50.762;7.000;2023-08-21T14:31:57;7.53;;;3.90;;
14883;SDS011;7534;50.762;7.000;2023-08-21T14:34:25;5.18;;;4.05;;
14883;SDS011;7534;50.762;7.000;2023-08-21T14:36:53;6.20;;;4.20;;
14883;SDS011;7534;50.762;7.000;2023-08-21T14:39:21;6.38;;;4.47;;
14883;SDS011;7534;50.762;7.000;2023-08-21T14:41:47;8.23;;;4.22;;
14883;SDS011;7534;50.762;7.000;2023-08-21T14:44:18;5.38;;;3.90;;
14883;SDS011;7534;50.762;7.000;2023-08-21T14:46:44;4.85;;;3.80;;
14883;SDS011;7534;50.762;7.000;2023-08-21T14:49:10;4.13;;;3.03;;
14883;SDS011;7534;50.762;7.000;2023-08-21T14:51:36;4.15;;;3.08;;
14883;SDS011;7534;50.762;7.000;2023-08-21T14:54:02;5.10;;;3.70;;
14883;SDS011;7534;50.762;7.000;2023-08-21T14:56:28;6.07;;;3.60;;
14883;SDS011;7534;50.762;7.000;2023-08-21T14:58:53;5.80;;;3.47;;
14883;SDS011;7534;50.762;7.000;2023-08-21T15:01:19;5.97;;;3.80;;
14883;SDS011;7534;50.762;7.000;2023-08-21T15:03:45;4.57;;;3.60;;
14883;SDS011;7534;50.762;7.000;2023-08-21T15:06:11;5.18;;;3.60;;
14883;SDS011;7534;50.762;7.000;2023-08-21T15:08:38;8.38;;;4.05;;
14883;SDS011;7534;50.762;7.000;2023-08-21T15:11:05;6.25;;;3.58;;
14883;SDS011;7534;50.762;7.000;2023-08-21T15:13:30;7.63;;;4.40;;
14883;SDS011;7534;50.762;7.000;2023-08-21T15:15:56;5.80;;;3.92;;
14883;SDS011;7534;50.762;7.000;2023-08-21T15:18:22;6.40;;;3.55;;
14883;SDS011;7534;50.762;7.000;2023-08-21T15:20:48;6.78;;;3.55;;
14883;SDS011;7534;50.762;7.000;2023-08-21T15:23:13;7.45;;;3.65;;
14883;SDS011;7534;50.762;7.000;2023-08-21T15:25:39;6.38;;;4.05;;
14883;SDS011;7534;50.762;7.000;2023-08-21T15:28:05;4.63;;;3.58;;